Time;durP1;ratioP1;P1;durP2;ratioP2;P2;SDS_P1;SDS_P2;PMS_P1;PMS_P2;Temp;Humidity;BMP_temperature;BMP_pressure;BME280_temperature;BME280_humidity;BME280_pressure;Samples;Min_cycle;Max_cycle;Signal;HPM_P1;HPM_P2
2024/01/04 00:02:12;;;;;;;23.77;7.70;;;;;;;6.99;100.00;99390.78;5084209;28;20025;-86
2024/01/04 00:04:41;;;;;;;23.05;7.45;;;;;;;6.99;100.00;99388.16;5087408;28;20073;-89
2024/01/04 00:07:06;;;;;;;23.77;7.80;;;;;;;6.97;100.00;99393.41;5083964;28;20044;-89
2024/01/04 00:09:31;;;;;;;24.02;7.20;;;;;;;6.98;100.00;99400.38;5086748;28;20043;-90
2024/01/04 00:11:57;;;;;;;21.65;7.15;;;;;;;7.04;100.00;99419.66;5085151;28;20036;-87
2024/01/04 00:14:22;;;;;;;25.38;7.63;;;;;;;7.07;100.00;99419.63;5085555;28;20460;-86
2024/01/04 00:16:47;;;;;;;22.20;7.30;;;;;;;7.02;100.00;99427.53;5086197;28;20084;-87
2024/01/04 00:19:13;;;;;;;24.40;7.40;;;;;;;7.11;100.00;99432.75;5083894;28;20104;-86
2024/01/04 00:21:38;;;;;;;23.55;7.70;;;;;;;7.07;100.00;99448.53;5087115;28;20032;-88
2024/01/04 00:24:05;;;;;;;21.58;6.90;;;;;;;7.09;100.00;99458.19;5083445;28;20048;-87
2024/01/04 00:26:30;;;;;;;22.60;6.72;;;;;;;7.04;100.00;99459.06;5068246;28;20121;-88
2024/01/04 00:28:57;;;;;;;20.25;6.35;;;;;;;6.97;100.00;99459.09;5084695;28;20036;-89
2024/01/04 00:31:22;;;;;;;23.48;6.30;;;;;;;6.97;100.00;99460.81;5067366;28;20029;-89
2024/01/04 00:33:47;;;;;;;21.58;6.00;;;;;;;6.91;100.00;99474.00;5067239;28;20043;-86
2024/01/04 00:36:13;;;;;;;21.20;5.38;;;;;;;6.89;100.00;99487.13;5083630;28;20035;-89
2024/01/04 00:38:39;;;;;;;20.27;5.70;;;;;;;6.85;100.00;99477.50;5068847;28;20032;-89
2024/01/04 00:41:04;;;;;;;22.13;6.05;;;;;;;6.88;100.00;99482.75;5083852;28;20028;-86
2024/01/04 00:43:30;;;;;;;22.05;6.57;;;;;;;6.89;100.00;99495.00;5085758;28;20032;-80
2024/01/04 00:45:55;;;;;;;21.30;6.07;;;;;;;6.93;100.00;99498.50;5085087;28;20032;-88
2024/01/04 00:48:20;;;;;;;23.23;6.13;;;;;;;6.90;100.00;99509.91;5084637;28;20024;-88
2024/01/04 00:50:46;;;;;;;20.60;5.50;;;;;;;6.88;100.00;99514.28;5085807;28;20047;-87
2024/01/04 00:53:11;;;;;;;18.73;5.00;;;;;;;6.87;100.00;99517.75;5083035;28;20032;-86
2024/01/04 00:55:36;;;;;;;20.73;4.95;;;;;;;6.88;100.00;99523.91;5086763;28;20050;-89
2024/01/04 00:58:05;;;;;;;19.55;5.00;;;;;;;6.90;100.00;99528.28;5065515;28;20036;-89
2024/01/04 01:00:31;;;;;;;20.15;4.93;;;;;;;6.86;100.00;99536.16;5067362;28;20025;-87
2024/01/04 01:02:56;;;;;;;20.52;5.18;;;;;;;6.78;100.00;99538.81;5084364;28;20395;-88
2024/01/04 01:05:22;;;;;;;18.85;4.57;;;;;;;6.85;100.00;99545.81;5084107;28;20387;-83
2024/01/04 01:07:47;;;;;;;21.02;4.60;;;;;;;6.86;100.00;99552.81;5085865;28;20043;-87
2024/01/04 01:10:13;;;;;;;18.95;4.72;;;;;;;6.85;100.00;99550.19;5083394;28;20441;-89
2024/01/04 01:12:38;;;;;;;21.15;5.20;;;;;;;6.95;100.00;99551.94;5086391;28;20032;-86
2024/01/04 01:15:04;;;;;;;22.10;5.43;;;;;;;6.82;100.00;99569.44;5083483;28;20027;-87
2024/01/04 01:17:29;;;;;;;20.15;5.20;;;;;;;6.83;100.00;99573.84;5085403;28;20020;-89
2024/01/04 01:19:54;;;;;;;20.55;5.70;;;;;;;6.82;100.00;99563.34;5066796;28;20111;-79
2024/01/04 01:22:20;;;;;;;21.58;5.40;;;;;;;6.79;100.00;99561.56;5084369;28;20030;-85
2024/01/04 01:24:45;;;;;;;21.80;5.65;;;;;;;6.87;100.00;99579.94;5085547;28;20129;-81
2024/01/04 01:27:10;;;;;;;19.55;5.20;;;;;;;6.86;100.00;99581.72;5083119;28;20455;-85
2024/01/04 01:29:36;;;;;;;19.88;5.30;;;;;;;6.87;100.00;99577.31;5086585;28;20036;-89
2024/01/04 01:32:01;;;;;;;21.27;5.72;;;;;;;6.80;100.00;99584.31;5083569;28;20067;-89
2024/01/04 01:34:26;;;;;;;20.85;5.35;;;;;;;6.89;100.00;99597.47;5084901;28;20073;-86
2024/01/04 01:36:52;;;;;;;20.58;5.78;;;;;;;6.88;100.00;99595.72;5067132;28;20024;-86
2024/01/04 01:39:18;;;;;;;20.98;5.80;;;;;;;6.82;100.00;99598.34;5083955;28;20371;-87
2024/01/04 01:41:43;;;;;;;21.15;5.35;;;;;;;6.90;100.00;99606.22;5086056;28;20249;-85
2024/01/04 01:44:09;;;;;;;21.42;4.85;;;;;;;6.92;100.00;99609.75;5081136;28;20035;-82
2024/01/04 01:46:34;;;;;;;21.90;5.00;;;;;;;6.86;100.00;99622.84;5085108;28;20067;-87
2024/01/04 01:49:00;;;;;;;22.15;5.47;;;;;;;6.88;100.00;99629.88;5083260;28;20031;-86
2024/01/04 01:51:26;;;;;;;20.02;4.88;;;;;;;6.96;100.00;99627.22;5085354;28;20399;-87
2024/01/04 01:53:51;;;;;;;22.08;5.05;;;;;;;6.92;100.00;99634.25;5085492;28;20024;-84
2024/01/04 01:56:17;;;;;;;21.08;4.70;;;;;;;6.90;100.00;99638.66;5084338;28;20553;-85
2024/01/04 01:58:43;;;;;;;20.85;5.07;;;;;;;6.96;100.00;99641.25;5085320;28;20437;-84
2024/01/04 02:01:08;;;;;;;20.38;5.00;;;;;;;6.90;100.00;99638.66;5082114;28;20074;-86
2024/01/04 02:03:34;;;;;;;20.77;4.63;;;;;;;6.86;100.00;99642.13;5058281;28;20539;-81
2024/01/04 02:05:59;;;;;;;22.92;5.45;;;;;;;6.82;100.00;99648.25;5082623;28;20047;-81
2024/01/04 02:08:24;;;;;;;23.00;5.60;;;;;;;6.84;100.00;99658.75;5083379;28;20085;-89
2024/01/04 02:10:50;;;;;;;21.02;5.20;;;;;;;6.78;100.00;99655.25;5084146;28;20077;-88
2024/01/04 02:13:15;;;;;;;21.77;5.40;;;;;;;6.74;100.00;99663.13;5064212;28;20036;-88
2024/01/04 02:15:40;;;;;;;22.10;5.30;;;;;;;6.70;100.00;99662.25;5084962;28;20028;-88
2024/01/04 02:18:07;;;;;;;22.95;5.47;;;;;;;6.63;100.00;99669.25;5081765;28;20464;-86
2024/01/04 02:20:32;;;;;;;20.33;5.20;;;;;;;6.65;100.00;99679.75;5066294;28;20494;-89
2024/01/04 02:22:58;;;;;;;22.33;5.32;;;;;;;6.63;100.00;99679.75;5082747;28;20032;-89
2024/01/04 02:25:23;;;;;;;22.08;5.50;;;;;;;6.70;100.00;99687.63;5083035;28;20110;-88
2024/01/04 02:27:48;;;;;;;22.33;6.05;;;;;;;6.67;100.00;99692.88;5066734;28;20162;-89
2024/01/04 02:30:14;;;;;;;22.27;5.88;;;;;;;6.69;100.00;99686.75;5084751;28;20024;-86
2024/01/04 02:32:39;;;;;;;21.35;6.15;;;;;;;6.74;100.00;99694.66;5081361;28;20029;-87
2024/01/04 02:35:05;;;;;;;23.27;6.82;;;;;;;6.73;100.00;99704.28;5084440;28;20028;-87
2024/01/04 02:37:31;;;;;;;24.60;6.60;;;;;;;6.74;100.00;99705.16;5082920;28;20028;-82
2024/01/04 02:39:56;;;;;;;22.48;6.53;;;;;;;6.78;100.00;99704.28;5083580;28;20033;-80
2024/01/04 02:42:21;;;;;;;23.17;6.53;;;;;;;6.77;100.00;99700.78;5083684;28;20483;-81
2024/01/04 02:44:47;;;;;;;22.58;6.35;;;;;;;6.81;100.00;99706.91;5081455;28;20032;-80
2024/01/04 02:47:12;;;;;;;22.02;5.93;;;;;;;6.82;100.00;99710.44;5081646;28;20028;-84
2024/01/04 02:49:38;;;;;;;22.95;6.75;;;;;;;6.81;100.00;99714.81;5066844;28;20471;-84
2024/01/04 02:52:04;;;;;;;22.60;6.65;;;;;;;6.83;100.00;99713.06;5064356;28;20028;-90
2024/01/04 02:54:29;;;;;;;21.85;6.50;;;;;;;6.78;100.00;99727.94;5083744;28;20028;-90
2024/01/04 02:56:55;;;;;;;22.25;6.30;;;;;;;6.75;100.00;99727.94;5065508;28;20039;-88
2024/01/04 02:59:20;;;;;;;21.20;6.20;;;;;;;6.74;100.00;99723.53;5082777;28;20063;-89
2024/01/04 03:01:48;;;;;;;20.42;5.40;;;;;;;6.74;100.00;99726.16;5084439;28;20028;-85
2024/01/04 03:04:14;;;;;;;19.08;5.40;;;;;;;6.69;100.00;99730.53;5081270;28;20024;-89
2024/01/04 03:06:40;;;;;;;18.92;5.47;;;;;;;6.65;100.00;99728.78;5063940;28;20506;-89
2024/01/04 03:09:06;;;;;;;17.48;4.80;;;;;;;6.63;100.00;99729.66;5066521;28;20028;-90
2024/01/04 03:11:31;;;;;;;19.40;5.07;;;;;;;6.63;100.00;99734.91;5081846;28;20064;-89
2024/01/04 03:13:56;;;;;;;17.60;5.20;;;;;;;6.63;100.00;99734.91;5082892;28;20033;-86
2024/01/04 03:16:22;;;;;;;19.15;5.40;;;;;;;6.63;100.00;99742.78;5083183;28;20107;-87
2024/01/04 03:18:47;;;;;;;19.58;5.18;;;;;;;6.63;100.00;99750.66;5063704;28;20050;-88
2024/01/04 03:21:13;;;;;;;17.55;5.00;;;;;;;6.59;100.00;99748.88;5084206;28;20020;-84
2024/01/04 03:23:39;;;;;;;19.70;5.30;;;;;;;6.55;100.00;99760.28;5080535;28;20127;-79
2024/01/04 03:26:04;;;;;;;18.33;5.30;;;;;;;6.50;100.00;99756.75;5066527;28;20058;-80
2024/01/04 03:28:30;;;;;;;18.27;4.75;;;;;;;6.48;100.00;99769.00;5082700;28;20025;-81
2024/01/04 03:30:55;;;;;;;19.00;4.93;;;;;;;6.45;100.00;99779.47;5083370;28;20024;-86
2024/01/04 03:33:21;;;;;;;18.95;5.03;;;;;;;6.42;100.00;99771.56;5065821;28;20025;-87
2024/01/04 03:35:46;;;;;;;19.38;5.30;;;;;;;6.36;100.00;99776.81;5081592;28;20051;-88
2024/01/04 03:38:11;;;;;;;19.85;5.72;;;;;;;6.39;100.00;99782.06;5084902;28;20471;-89
2024/01/04 03:40:37;;;;;;;19.08;5.60;;;;;;;6.26;100.00;99787.28;5081446;28;20025;-83
2024/01/04 03:43:04;;;;;;;19.17;5.95;;;;;;;6.22;100.00;99780.25;5065096;28;20024;-86
2024/01/04 03:45:30;;;;;;;21.35;6.40;;;;;;;6.23;100.00;99792.50;5084056;28;20025;-86
2024/01/04 03:47:56;;;;;;;21.15;6.80;;;;;;;6.28;100.00;99800.41;5082178;28;20036;-84
2024/01/04 03:50:21;;;;;;;20.40;6.35;;;;;;;6.33;100.00;99789.91;5081732;28;20029;-87
2024/01/04 03:52:47;;;;;;;21.25;6.80;;;;;;;6.36;100.00;99797.81;5083814;28;20517;-88
2024/01/04 03:55:15;;;;;;;22.38;7.18;;;;;;;6.41;100.00;99796.09;5081637;28;20090;-86
2024/01/04 03:57:40;;;;;;;21.15;6.78;;;;;;;6.47;100.00;99796.13;5081591;28;20120;-86
2024/01/04 04:00:06;;;;;;;22.13;7.18;;;;;;;6.52;100.00;99799.63;5085193;28;20115;-84
2024/01/04 04:02:32;;;;;;;21.70;7.47;;;;;;;6.56;100.00;99804.03;5063202;28;20082;-84
2024/01/04 04:04:57;;;;;;;20.98;7.25;;;;;;;6.59;100.00;99806.66;5064307;28;20028;-80
2024/01/04 04:07:25;;;;;;;22.70;7.60;;;;;;;6.62;100.00;99811.06;5083413;28;20078;-80
2024/01/04 04:09:51;;;;;;;23.27;8.10;;;;;;;6.68;100.00;99812.84;5085171;28;20383;-80
2024/01/04 04:12:16;;;;;;;21.80;7.97;;;;;;;6.70;100.00;99819.84;5087443;28;20028;-85
2024/01/04 04:14:42;;;;;;;22.63;8.32;;;;;;;6.74;100.00;99819.00;5083983;28;20036;-85
2024/01/04 04:17:07;;;;;;;23.20;8.32;;;;;;;6.76;100.00;99827.75;5087099;28;20111;-87
2024/01/04 04:19:33;;;;;;;25.17;8.95;;;;;;;6.74;100.00;99821.63;5084385;28;20399;-86
2024/01/04 04:21:58;;;;;;;24.23;9.15;;;;;;;6.73;100.00;99827.75;5085860;28;20024;-86
2024/01/04 04:24:24;;;;;;;24.77;10.02;;;;;;;6.68;100.00;99829.44;5085238;28;20125;-85
2024/01/04 04:26:49;;;;;;;27.27;11.02;;;;;;;6.70;100.00;99840.88;5084406;28;20413;-83
2024/01/04 04:29:15;;;;;;;26.17;11.13;;;;;;;6.70;100.00;99850.47;5086987;28;20028;-84
2024/01/04 04:31:40;;;;;;;26.55;11.48;;;;;;;6.66;100.00;99846.09;5083714;28;20182;-84
2024/01/04 04:34:06;;;;;;;26.38;10.73;;;;;;;6.66;100.00;99853.97;5086589;28;20101;-84
2024/01/04 04:36:31;;;;;;;28.90;11.18;;;;;;;6.65;100.00;99849.59;5066714;28;20462;-85
2024/01/04 04:39:00;;;;;;;29.33;11.50;;;;;;;6.63;100.00;99847.81;5085188;28;20459;-84
2024/01/04 04:41:26;;;;;;;25.95;11.68;;;;;;;6.65;100.00;99852.22;5085112;28;20024;-85
2024/01/04 04:43:51;;;;;;;28.05;12.10;;;;;;;6.60;100.00;99847.81;5084641;28;20495;-81
2024/01/04 04:46:18;;;;;;;29.13;12.63;;;;;;;6.60;100.00;99871.44;5082468;28;20035;-80
2024/01/04 04:48:44;;;;;;;28.15;12.45;;;;;;;6.58;100.00;99865.31;5086847;28;20024;-79
2024/01/04 04:51:10;;;;;;;26.05;12.13;;;;;;;6.55;100.00;99865.31;5083731;28;20029;-80
2024/01/04 04:53:36;;;;;;;25.20;10.35;;;;;;;6.52;100.00;99877.53;5065032;28;20479;-80
2024/01/04 04:56:02;;;;;;;24.38;10.20;;;;;;;6.49;100.00;99872.28;5085692;28;20036;-84
2024/01/04 04:58:29;;;;;;;25.30;9.85;;;;;;;6.47;100.00;99872.25;5084465;28;20443;-85
2024/01/04 05:00:55;;;;;;;22.65;9.02;;;;;;;6.42;100.00;99859.13;5084728;28;20029;-85
2024/01/04 05:03:20;;;;;;;23.30;8.75;;;;;;;6.45;100.00;99874.88;5086717;28;20374;-87
2024/01/04 05:05:46;;;;;;;24.02;9.27;;;;;;;6.44;100.00;99874.88;5085868;28;20364;-84
2024/01/04 05:08:11;;;;;;;25.63;11.45;;;;;;;6.45;100.00;99877.50;5082988;28;20033;-82
2024/01/04 05:10:36;;;;;;;26.23;10.55;;;;;;;6.52;100.00;99882.78;5086132;28;20032;-86
2024/01/04 05:13:02;;;;;;;26.75;11.25;;;;;;;6.50;100.00;99880.16;5083723;28;20024;-86
2024/01/04 05:15:27;;;;;;;27.50;13.45;;;;;;;6.54;100.00;99886.28;5084508;28;20068;-86
2024/01/04 05:17:53;;;;;;;28.75;13.95;;;;;;;6.55;100.00;99888.94;5084663;28;20115;-86
2024/01/04 05:20:19;;;;;;;27.05;13.75;;;;;;;6.53;100.00;99888.03;5083252;28;20029;-85
2024/01/04 05:22:45;;;;;;;29.38;13.93;;;;;;;6.52;100.00;99890.66;5086056;28;20016;-84
2024/01/04 05:25:11;;;;;;;27.77;14.15;;;;;;;6.45;100.00;99893.25;5082449;28;20053;-86
2024/01/04 05:27:38;;;;;;;26.70;13.20;;;;;;;6.42;100.00;99908.09;5085786;28;20028;-85
2024/01/04 05:30:03;;;;;;;25.85;12.15;;;;;;;6.41;100.00;99901.13;5065464;28;20059;-87
2024/01/04 05:32:29;;;;;;;25.60;11.50;;;;;;;6.41;100.00;99912.47;5056989;28;20078;-84
2024/01/04 05:34:54;;;;;;;26.20;11.55;;;;;;;6.40;100.00;99907.22;5084666;28;20031;-81
2024/01/04 05:37:19;;;;;;;25.67;10.38;;;;;;;6.35;100.00;99908.94;5064976;28;20458;-81
2024/01/04 05:39:45;;;;;;;24.60;9.93;;;;;;;6.31;100.00;99910.66;5086060;28;20098;-87
2024/01/04 05:42:10;;;;;;;22.45;9.05;;;;;;;6.33;100.00;99916.78;5082126;28;20040;-88
2024/01/04 05:44:35;;;;;;;23.73;9.25;;;;;;;6.28;100.00;99927.25;5085132;28;20020;-87
2024/01/04 05:47:01;;;;;;;22.42;9.05;;;;;;;6.26;100.00;99922.88;5083168;28;20123;-87
2024/01/04 05:49:26;;;;;;;21.20;7.88;;;;;;;6.24;100.00;99928.09;5083933;28;20029;-87
2024/01/04 05:51:52;;;;;;;22.00;7.60;;;;;;;6.21;100.00;99928.09;5066596;28;20032;-87
2024/01/04 05:54:17;;;;;;;22.23;6.97;;;;;;;6.21;100.00;99938.59;5082528;28;20020;-86
2024/01/04 05:56:44;;;;;;;21.00;6.45;;;;;;;6.23;100.00;99935.97;5085350;28;20455;-83
2024/01/04 05:59:10;;;;;;;20.75;6.75;;;;;;;6.20;100.00;99944.69;5068717;28;20086;-85
2024/01/04 06:01:36;;;;;;;20.73;6.20;;;;;;;6.20;100.00;99959.56;5086018;28;20405;-81
2024/01/04 06:04:02;;;;;;;20.13;6.28;;;;;;;6.20;100.00;99952.56;5084184;28;20028;-80
2024/01/04 06:06:27;;;;;;;19.77;6.30;;;;;;;6.18;100.00;99956.94;5082464;28;20093;-81
2024/01/04 06:08:52;;;;;;;19.77;6.55;;;;;;;6.22;100.00;99963.97;5065692;28;20071;-80
2024/01/04 06:11:18;;;;;;;19.85;7.30;;;;;;;6.26;100.00;99964.84;5084984;28;20528;-80
2024/01/04 06:13:43;;;;;;;21.63;7.38;;;;;;;6.26;100.00;99971.00;5086252;28;20086;-80
2024/01/04 06:16:09;;;;;;;22.33;8.18;;;;;;;6.26;100.00;99970.09;5081990;28;20039;-80
2024/01/04 06:18:35;;;;;;;20.88;7.65;;;;;;;6.28;100.00;99974.50;5084431;28;20081;-83
2024/01/04 06:21:01;;;;;;;21.33;7.93;;;;;;;6.31;100.00;99988.56;5083251;28;20391;-85
2024/01/04 06:23:27;;;;;;;22.45;7.85;;;;;;;6.33;100.00;99987.66;5083222;28;20475;-86
2024/01/04 06:25:53;;;;;;;21.65;8.30;;;;;;;6.34;100.00;99980.69;5083568;28;20127;-83
2024/01/04 06:28:18;;;;;;;21.20;7.88;;;;;;;6.33;100.00;99986.81;5082448;28;20124;-84
2024/01/04 06:30:43;;;;;;;22.20;7.95;;;;;;;6.34;100.00;99989.44;5084204;28;20432;-85
2024/01/04 06:33:09;;;;;;;23.10;8.20;;;;;;;6.33;100.00;99989.44;5081681;28;20379;-84
2024/01/04 06:35:34;;;;;;;20.75;7.80;;;;;;;6.32;100.00;99990.28;5084167;28;20110;-80
2024/01/04 06:38:02;;;;;;;22.75;8.52;;;;;;;6.33;100.00;99992.06;5082704;28;20024;-83
2024/01/04 06:40:27;;;;;;;22.80;8.85;;;;;;;6.34;100.00;99993.81;5081542;28;20021;-85
2024/01/04 06:42:55;;;;;;;24.40;9.57;;;;;;;6.34;100.00;99996.44;5081464;28;20514;-81
2024/01/04 06:45:22;;;;;;;25.20;9.80;;;;;;;6.36;100.00;100000.81;5064286;28;20072;-80
2024/01/04 06:47:47;;;;;;;23.38;9.40;;;;;;;6.36;100.00;100010.44;5084577;28;20028;-83
2024/01/04 06:50:12;;;;;;;23.77;9.13;;;;;;;6.37;100.00;100012.22;5080741;28;20050;-79
2024/01/04 06:52:38;;;;;;;25.25;9.60;;;;;;;6.32;100.00;100016.53;5081383;28;20507;-79
2024/01/04 06:55:03;;;;;;;24.05;9.20;;;;;;;6.21;100.00;100017.31;5084124;28;20472;-78
2024/01/04 06:57:29;;;;;;;23.40;9.80;;;;;;;6.16;100.00;100021.66;5082588;28;20364;-79
2024/01/04 06:59:54;;;;;;;24.35;9.18;;;;;;;6.19;100.00;100037.44;5082307;28;20443;-79
2024/01/04 07:02:20;;;;;;;23.83;9.93;;;;;;;6.19;100.00;100034.81;5084134;28;20042;-86
2024/01/04 07:04:45;;;;;;;23.58;9.23;;;;;;;6.18;100.00;100038.28;5080980;28;20036;-85
2024/01/04 07:07:11;;;;;;;23.55;9.50;;;;;;;6.17;100.00;100047.03;5080907;28;20039;-80
2024/01/04 07:09:36;;;;;;;23.45;8.80;;;;;;;6.21;100.00;100051.44;5084380;28;20059;-85
2024/01/04 07:12:02;;;;;;;22.13;9.30;;;;;;;6.21;100.00;100040.06;5081899;28;20534;-86
2024/01/04 07:14:27;;;;;;;25.92;9.18;;;;;;;6.23;100.00;100054.97;5082763;28;20085;-78
2024/01/04 07:16:53;;;;;;;22.40;9.13;;;;;;;6.23;100.00;100054.97;5065337;28;20115;-83
2024/01/04 07:19:18;;;;;;;22.65;8.30;;;;;;;6.24;100.00;100047.97;5063286;28;20103;-84
2024/01/04 07:21:44;;;;;;;24.55;9.00;;;;;;;6.27;100.00;100056.75;5066530;28;20092;-83
2024/01/04 07:24:10;;;;;;;24.80;8.70;;;;;;;6.27;100.00;100059.38;5062671;28;20055;-85
2024/01/04 07:26:35;;;;;;;23.30;8.40;;;;;;;6.31;100.00;100062.91;5083521;28;20078;-85
2024/01/04 07:29:00;;;;;;;22.58;8.23;;;;;;;6.35;100.00;100064.72;5082301;28;20130;-85
2024/01/04 07:31:26;;;;;;;26.00;9.20;;;;;;;6.34;100.00;100064.69;5082188;28;20028;-85
2024/01/04 07:33:51;;;;;;;28.48;10.15;;;;;;;6.35;100.00;100075.22;5083237;28;20036;-86
2024/01/04 07:36:17;;;;;;;27.42;9.95;;;;;;;6.32;100.00;100074.28;5081000;28;20540;-80
2024/01/04 07:38:43;;;;;;;24.92;10.18;;;;;;;6.26;100.00;100076.00;5084339;28;20039;-79
2024/01/04 07:41:08;;;;;;;26.58;10.88;;;;;;;6.24;100.00;100080.34;5063964;28;20029;-85
2024/01/04 07:43:33;;;;;;;28.15;11.10;;;;;;;6.19;100.00;100084.69;5087475;28;20025;-82
2024/01/04 07:45:59;;;;;;;28.60;11.70;;;;;;;6.17;100.00;100081.13;5085960;28;20067;-86
2024/01/04 07:48:25;;;;;;;29.65;12.50;;;;;;;6.11;100.00;100089.81;5057281;28;20052;-87
2024/01/04 07:50:51;;;;;;;28.55;12.60;;;;;;;6.08;100.00;100096.81;5087876;28;20024;-86
2024/01/04 07:53:16;;;;;;;28.58;13.15;;;;;;;6.07;100.00;100097.66;5084989;28;20035;-85
2024/01/04 07:55:42;;;;;;;29.73;14.30;;;;;;;6.08;100.00;100102.91;5084770;28;20031;-85
2024/01/04 07:58:07;;;;;;;30.30;14.60;;;;;;;6.10;100.00;100110.81;5069962;28;20123;-85
2024/01/04 08:00:32;;;;;;;29.30;14.48;;;;;;;6.10;100.00;100116.97;5085708;28;20495;-86
2024/01/04 08:02:58;;;;;;;29.42;14.80;;;;;;;6.10;100.00;100118.69;5086850;28;20435;-84
2024/01/04 08:05:23;;;;;;;30.55;14.20;;;;;;;6.11;100.00;100123.06;5087719;28;20028;-80
2024/01/04 08:07:49;;;;;;;32.65;14.23;;;;;;;6.18;100.00;100126.66;5067060;28;20123;-83
2024/01/04 08:10:14;;;;;;;29.95;14.02;;;;;;;6.21;100.00;100129.31;5088509;28;20107;-85
2024/01/04 08:12:40;;;;;;;29.67;14.15;;;;;;;6.17;100.00;100120.50;5084376;28;20056;-86
2024/01/04 08:15:08;;;;;;;28.67;14.02;;;;;;;6.21;100.00;100124.06;5087225;28;20032;-86
2024/01/04 08:17:33;;;;;;;29.48;13.18;;;;;;;6.24;100.00;100130.22;5087014;28;20089;-84
2024/01/04 08:19:59;;;;;;;30.30;13.10;;;;;;;6.26;100.00;100133.75;5085860;28;20037;-79
2024/01/04 08:22:25;;;;;;;27.23;12.25;;;;;;;6.29;100.00;100138.13;5086161;28;20118;-86
2024/01/04 08:24:50;;;;;;;25.55;11.00;;;;;;;6.32;100.00;100129.41;5084518;28;20040;-86
2024/01/04 08:27:19;;;;;;;24.88;9.65;;;;;;;6.33;100.00;100133.81;5069375;28;20040;-86
2024/01/04 08:29:48;;;;;;;23.42;8.90;;;;;;;6.33;100.00;100139.94;5083503;28;20024;-86
2024/01/04 08:32:17;;;;;;;25.45;8.70;;;;;;;6.32;100.00;100138.19;5083836;28;20032;-84
2024/01/04 08:34:42;;;;;;;22.98;7.57;;;;;;;6.33;100.00;100133.81;5083761;28;20024;-86
2024/01/04 08:37:08;;;;;;;22.90;7.65;;;;;;;6.31;100.00;100139.03;5068572;28;20055;-86
2024/01/04 08:39:33;;;;;;;22.83;7.45;;;;;;;6.27;100.00;100143.38;5084837;28;20109;-85
2024/01/04 08:41:59;;;;;;;21.25;6.20;;;;;;;6.24;100.00;100134.59;5066976;28;20052;-84
2024/01/04 08:44:25;;;;;;;20.58;6.50;;;;;;;6.21;100.00;100135.44;5086085;28;20062;-84
2024/01/04 08:46:52;;;;;;;19.35;6.25;;;;;;;6.17;100.00;100138.88;5087652;28;20024;-87
2024/01/04 08:49:18;;;;;;;21.17;6.50;;;;;;;6.17;100.00;100143.25;5083603;28;20054;-84
2024/01/04 08:51:43;;;;;;;19.88;6.30;;;;;;;6.22;100.00;100141.59;5086734;28;20020;-86
2024/01/04 08:54:08;;;;;;;19.40;6.30;;;;;;;6.24;100.00;100150.34;5083432;28;20020;-79
2024/01/04 08:56:35;;;;;;;20.00;6.60;;;;;;;6.22;100.00;100154.72;5085440;28;20029;-80
2024/01/04 08:59:02;;;;;;;20.48;6.95;;;;;;;6.23;100.00;100154.72;5084458;28;20027;-78
2024/01/04 09:01:28;;;;;;;20.38;6.63;;;;;;;6.22;100.00;100168.69;5084780;28;20013;-79
2024/01/04 09:03:53;;;;;;;21.15;6.90;;;;;;;6.24;100.00;100161.72;5067206;28;20364;-80
2024/01/04 09:06:18;;;;;;;19.77;6.88;;;;;;;6.25;100.00;100168.72;5083022;28;20060;-79
2024/01/04 09:08:44;;;;;;;19.90;6.28;;;;;;;6.27;100.00;100172.25;5086457;28;20035;-86
2024/01/04 09:11:09;;;;;;;20.98;6.40;;;;;;;6.27;100.00;100166.13;5083296;28;20087;-85
2024/01/04 09:13:35;;;;;;;19.33;6.20;;;;;;;6.26;100.00;100170.50;5085609;28;20016;-86
2024/01/04 09:16:00;;;;;;;19.40;5.78;;;;;;;6.29;100.00;100172.25;5084713;28;20036;-86
2024/01/04 09:18:26;;;;;;;18.25;5.60;;;;;;;6.34;100.00;100173.19;5083953;28;20036;-81
2024/01/04 09:20:51;;;;;;;18.80;5.50;;;;;;;6.36;100.00;100175.84;5085506;28;20024;-82
2024/01/04 09:23:17;;;;;;;17.52;5.05;;;;;;;6.32;100.00;100177.56;5082404;28;20048;-80
2024/01/04 09:25:42;;;;;;;17.42;5.40;;;;;;;6.31;100.00;100188.06;5085494;28;20051;-84
2024/01/04 09:28:08;;;;;;;15.23;4.68;;;;;;;6.33;100.00;100183.69;5065114;28;20060;-84
2024/01/04 09:30:33;;;;;;;19.25;5.38;;;;;;;6.35;100.00;100187.19;5066700;28;20020;-82
2024/01/04 09:32:59;;;;;;;18.85;5.50;;;;;;;6.36;100.00;100188.97;5067845;28;20066;-81
2024/01/04 09:35:24;;;;;;;18.10;5.55;;;;;;;6.41;100.00;100205.66;5085080;28;20058;-84
2024/01/04 09:37:50;;;;;;;17.98;5.55;;;;;;;6.43;100.00;100196.06;5082685;28;20029;-84
2024/01/04 09:40:17;;;;;;;17.92;5.28;;;;;;;6.47;100.00;100189.97;5067748;28;20032;-83
2024/01/04 09:42:44;;;;;;;16.20;4.75;;;;;;;6.46;100.00;100206.59;5082343;28;20090;-81
2024/01/04 09:45:14;;;;;;;17.83;5.40;;;;;;;6.48;100.00;100218.00;5085181;28;20085;-82
2024/01/04 09:47:43;;;;;;;16.50;4.75;;;;;;;6.44;100.00;100213.56;5082338;28;20029;-81
2024/01/04 09:50:11;;;;;;;16.92;5.10;;;;;;;6.42;100.00;100217.91;5085093;28;20379;-77
2024/01/04 09:52:43;;;;;;;17.85;5.30;;;;;;;6.44;100.00;100224.09;5082578;28;20032;-79
2024/01/04 09:55:09;;;;;;;17.00;5.20;;;;;;;6.47;100.00;100225.88;5084839;28;20024;-84
2024/01/04 09:57:35;;;;;;;17.98;5.25;;;;;;;6.44;100.00;100237.22;5083213;28;20031;-82
2024/01/04 10:00:00;;;;;;;19.17;6.50;;;;;;;6.41;100.00;100242.44;5066058;28;20032;-85
2024/01/04 10:02:26;;;;;;;20.33;9.25;;;;;;;6.37;100.00;100246.75;5084152;28;20032;-86
2024/01/04 10:04:51;;;;;;;22.50;11.25;;;;;;;6.36;100.00;100244.97;5069810;28;20029;-86
2024/01/04 10:07:25;;;;;;;22.30;12.23;;;;;;;6.38;100.00;100251.13;5081361;28;20031;-83
2024/01/04 10:10:05;;;;;;;22.45;11.00;;;;;;;6.39;100.00;100249.38;5067038;28;20020;-85
2024/01/04 10:12:36;;;;;;;23.15;12.85;;;;;;;6.38;100.00;100258.16;5083226;28;20028;-82
2024/01/04 10:15:03;;;;;;;23.25;13.95;;;;;;;6.37;100.00;100259.88;5086065;28;20020;-81
2024/01/04 10:17:28;;;;;;;22.17;9.68;;;;;;;6.38;100.00;100264.28;5084156;28;20467;-81
2024/01/04 10:19:55;;;;;;;20.83;7.57;;;;;;;6.40;100.00;100266.91;5083184;28;20097;-89
2024/01/04 10:22:24;;;;;;;21.00;9.80;;;;;;;6.42;100.00;100266.06;5082542;28;20029;-78
2024/01/04 10:24:51;;;;;;;22.05;9.10;;;;;;;6.41;100.00;100269.56;5082534;28;20119;-78
2024/01/04 10:27:16;;;;;;;21.17;8.52;;;;;;;6.43;100.00;100269.56;5065869;28;20028;-79
2024/01/04 10:29:45;;;;;;;19.65;6.75;;;;;;;6.43;100.00;100262.56;5081663;28;20028;-78
2024/01/04 10:32:12;;;;;;;20.08;6.22;;;;;;;6.48;100.00;100256.50;5066783;28;20126;-78
2024/01/04 10:34:38;;;;;;;18.13;5.90;;;;;;;6.45;100.00;100268.72;5067096;28;20036;-78
2024/01/04 10:37:12;;;;;;;17.30;5.50;;;;;;;6.49;100.00;100266.13;5081649;28;20052;-78
2024/01/04 10:39:38;;;;;;;17.08;5.40;;;;;;;6.47;100.00;100266.13;5081219;28;20110;-77
2024/01/04 10:42:05;;;;;;;16.95;5.20;;;;;;;6.44;100.00;100268.72;5083960;28;20040;-79
2024/01/04 10:44:34;;;;;;;17.83;5.18;;;;;;;6.41;100.00;100273.94;5081823;28;20028;-79
2024/01/04 10:47:04;;;;;;;15.73;4.50;;;;;;;6.41;100.00;100272.19;5083369;28;20064;-78
2024/01/04 10:49:29;;;;;;;13.30;4.10;;;;;;;6.38;100.00;100266.03;5082035;28;20102;-78
2024/01/04 10:51:57;;;;;;;15.23;4.30;;;;;;;6.44;100.00;100273.97;5080931;28;20108;-77
2024/01/04 10:54:37;;;;;;;14.60;4.22;;;;;;;6.49;100.00;100276.66;5067320;28;20419;-82
2024/01/04 10:57:03;;;;;;;12.80;4.10;;;;;;;6.53;100.00;100274.06;5081116;28;20039;-79
2024/01/04 10:59:31;;;;;;;15.70;4.13;;;;;;;6.56;100.00;100268.84;5066384;28;20024;-84
2024/01/04 11:02:00;;;;;;;10.40;3.70;;;;;;;6.52;100.00;100272.28;5081120;28;20040;-81
2024/01/04 11:04:26;;;;;;;12.27;3.60;;;;;;;6.61;100.00;100275.03;5084259;28;20078;-82
2024/01/04 11:06:52;;;;;;;14.70;3.63;;;;;;;6.77;100.00;100275.19;5082098;28;20028;-87
2024/01/04 11:09:22;;;;;;;14.35;3.60;;;;;;;6.89;100.00;100277.97;5083318;28;20074;-85
2024/01/04 11:11:53;;;;;;;14.07;3.65;;;;;;;6.91;100.00;100276.22;5064677;28;20422;-80
2024/01/04 11:14:22;;;;;;;13.27;3.40;;;;;;;6.86;100.00;100275.31;5083449;28;20056;-83